Kur, Russia
Current Conditions -  °F | °C
As of 11:30 PM on Friday 28 Nov 2014 (Local Time) from UHHH Reporting Station
Clear Clear  
Wind Chill: -9°   Ceiling: Unl
Heat Index:   Visibility: 6mi
Dew Point: -8°   Wind: 7mph
Humidity: 61%   Direction: 260°W
Pressure: 30.21"   Gusts: NA
Location:  49.93°N, 134.63°E
Report Text: UHHH 281330Z 26003MPS CAVOK M16/M22 Q1023 NOSIG RMK QFE761/101523090060
Loading
Personal Weather Stations






























Interactive Weather Map New forecast layout! Learn more

10-Day Weather Forecast

Advertisements
Track Severe Weather on mobile